Time;durP1;ratioP1;P1;durP2;ratioP2;P2;SDS_P1;SDS_P2;PMS_P1;PMS_P2;Temp;Humidity;BMP_temperature;BMP_pressure;BME280_temperature;BME280_humidity;BME280_pressure;Samples;Min_cycle;Max_cycle;Signal;HPM_P1;HPM_P2
2022/05/30 00:01:37;;;;;;;2.60;2.40;;;;;;;14.64;84.85;100132.28;4878434;29;20041;-65
2022/05/30 00:04:05;;;;;;;2.20;2.10;;;;;;;14.42;86.43;100131.22;4879099;29;20064;-65
2022/05/30 00:06:33;;;;;;;2.60;2.40;;;;;;;14.36;87.31;100138.81;4878640;29;20056;-65
2022/05/30 00:09:02;;;;;;;4.18;2.55;;;;;;;14.37;88.81;100128.59;4879286;29;20049;-65
2022/05/30 00:11:30;;;;;;;4.05;2.50;;;;;;;14.37;89.93;100136.88;4879183;29;20049;-65
2022/05/30 00:13:58;;;;;;;2.75;2.53;;;;;;;14.34;90.23;100127.31;4879111;29;20492;-65
2022/05/30 00:16:26;;;;;;;2.90;2.50;;;;;;;14.41;88.93;100134.31;4862388;29;20049;-65
2022/05/30 00:18:54;;;;;;;2.95;2.40;;;;;;;14.36;89.77;100138.00;4879014;29;20053;-65
2022/05/30 00:21:24;;;;;;;3.17;2.55;;;;;;;14.28;90.92;100127.75;4845184;29;20046;-65
2022/05/30 00:23:53;;;;;;;2.70;1.80;;;;;;;14.28;91.39;100123.09;4878783;29;20057;-65
2022/05/30 00:26:23;;;;;;;2.72;2.50;;;;;;;14.15;91.27;100130.28;4878886;29;20056;-65
2022/05/30 00:28:51;;;;;;;5.00;2.45;;;;;;;14.07;91.31;100131.88;4878336;29;20064;-65
2022/05/30 00:31:20;;;;;;;2.50;2.30;;;;;;;14.11;91.18;100132.03;4878749;29;20072;-65
2022/05/30 00:33:49;;;;;;;3.03;2.50;;;;;;;14.17;90.57;100125.28;4849021;29;20404;-65
2022/05/30 00:36:40;;;;;;;2.47;2.28;;;;;;;14.22;90.42;100136.16;4878735;29;20057;-65
2022/05/30 00:39:19;;;;;;;3.63;2.78;;;;;;;14.33;89.19;100144.16;4878336;29;20539;-65
2022/05/30 00:41:47;;;;;;;3.25;2.53;;;;;;;14.34;88.69;100130.06;4878764;29;20053;-65
2022/05/30 00:44:15;;;;;;;2.03;1.85;;;;;;;14.29;89.34;100124.72;4878625;29;20049;-65
2022/05/30 00:46:43;;;;;;;2.38;2.17;;;;;;;14.28;90.39;100116.75;4878609;29;20049;-65
2022/05/30 00:49:13;;;;;;;3.08;2.58;;;;;;;14.28;89.52;100119.50;4878562;29;20064;-65
2022/05/30 00:51:46;;;;;;;2.45;2.25;;;;;;;14.32;87.57;100121.31;4878411;29;20037;-65
2022/05/30 00:54:21;;;;;;;2.45;2.25;;;;;;;14.33;88.55;100113.88;4877721;29;20053;-65
2022/05/30 00:56:54;;;;;;;2.40;2.17;;;;;;;14.25;89.55;100109.94;4873937;29;20057;-65
2022/05/30 00:59:23;;;;;;;2.63;2.42;;;;;;;14.24;91.12;100102.81;4875046;29;20060;-65
2022/05/30 01:01:51;;;;;;;3.72;2.55;;;;;;;14.17;89.46;100095.00;4878425;29;20041;-65
2022/05/30 01:07:09;;;;;;;2.90;2.55;;;;;;;14.14;89.06;100103.09;4874119;29;20058;-65
2022/05/30 01:09:40;;;;;;;2.55;2.35;;;;;;;14.09;87.88;100098.53;4874078;29;20059;-65
2022/05/30 01:12:11;;;;;;;2.60;2.28;;;;;;;14.11;87.60;100099.84;4877188;29;20485;-65
2022/05/30 01:14:42;;;;;;;2.05;1.85;;;;;;;14.09;86.26;100117.81;4878322;29;20068;-65
2022/05/30 01:17:14;;;;;;;2.78;2.30;;;;;;;14.04;87.49;100115.19;4873534;29;20060;-65
2022/05/30 01:19:57;;;;;;;1.98;1.60;;;;;;;14.00;88.72;100104.00;4874264;29;20048;-65
2022/05/30 01:22:31;;;;;;;3.00;2.70;;;;;;;14.27;90.97;100095.88;4861503;29;20428;-65
2022/05/30 01:25:15;;;;;;;;;;;;;;;14.28;90.90;100080.97;4861842;29;20053;-65
2022/05/30 01:28:22;;;;;;;2.42;2.22;;;;;;;14.32;90.83;100087.47;4863690;29;19929;-65
2022/05/30 01:30:53;;;;;;;3.85;2.55;;;;;;;14.25;91.58;100104.44;4869966;29;20065;-65
2022/05/30 01:33:21;;;;;;;3.08;2.28;;;;;;;14.27;90.93;100126.16;4858272;29;20064;-65
2022/05/30 01:35:48;;;;;;;2.80;2.45;;;;;;;14.21;91.53;100114.44;4890786;29;20059;-65
2022/05/30 01:38:37;;;;;;;3.13;2.65;;;;;;;14.11;92.05;100119.13;4876924;29;20408;-65
2022/05/30 01:41:07;;;;;;;3.92;2.47;;;;;;;14.03;90.45;100119.84;4863843;29;20108;-66
2022/05/30 01:43:35;;;;;;;2.35;2.15;;;;;;;13.95;89.89;100113.19;4876012;29;20057;-65
2022/05/30 01:46:11;;;;;;;2.53;2.33;;;;;;;14.00;89.84;100105.91;4876577;29;20049;-65
2022/05/30 01:48:47;;;;;;;2.30;2.10;;;;;;;13.93;88.51;100093.44;4872982;29;20060;-65
2022/05/30 01:51:17;;;;;;;2.67;2.30;;;;;;;13.87;88.32;100093.88;4877433;29;20045;-66
2022/05/30 01:53:46;;;;;;;3.92;2.28;;;;;;;13.89;89.20;100102.63;4876204;29;20057;-65
2022/05/30 01:56:20;;;;;;;3.42;2.53;;;;;;;13.92;86.00;100099.22;4877559;29;20053;-65
2022/05/30 01:58:50;;;;;;;5.88;2.17;;;;;;;13.93;87.18;100104.44;4875996;29;20056;-65
2022/05/30 02:01:42;;;;;;;4.70;2.58;;;;;;;13.92;89.09;100096.50;4865732;29;20484;-66
2022/05/30 02:04:12;;;;;;;10.32;2.83;;;;;;;14.20;86.91;100097.16;4861441;29;20400;-65
2022/05/30 02:06:40;;;;;;;8.07;2.75;;;;;;;14.37;89.58;100095.56;4881438;29;20049;-65
2022/05/30 02:09:08;;;;;;;2.60;2.22;;;;;;;14.25;93.40;100104.44;4864841;29;20052;-65
2022/05/30 02:11:37;;;;;;;4.63;2.67;;;;;;;14.34;92.00;100099.81;4875233;29;20493;-66
2022/05/30 02:14:40;;;;;;;6.18;2.92;;;;;;;14.44;90.28;100109.72;4878721;29;20056;-65
2022/05/30 02:17:08;;;;;;;4.97;2.08;;;;;;;14.29;92.89;100104.63;4881521;29;20057;-64
2022/05/30 02:19:40;;;;;;;3.25;2.83;;;;;;;14.09;93.78;100110.34;4881157;29;20057;-65
2022/05/30 02:22:19;;;;;;;2.28;2.00;;;;;;;14.01;94.22;100102.88;4881179;29;20132;-65
2022/05/30 02:24:49;;;;;;;2.28;2.08;;;;;;;14.18;92.79;100099.38;4879863;29;20496;-65
2022/05/30 02:27:18;;;;;;;2.60;2.22;;;;;;;14.28;91.64;100105.75;4864342;29;20060;-65
2022/05/30 02:29:46;;;;;;;4.07;2.75;;;;;;;14.16;92.94;100109.91;4866678;29;20057;-64
2022/05/30 02:32:19;;;;;;;3.92;2.80;;;;;;;14.14;94.63;100120.41;4848134;29;20053;-65
2022/05/30 02:37:35;;;;;;;3.30;2.35;;;;;;;13.88;95.79;100131.25;4879492;29;20048;-65
2022/05/30 02:40:23;;;;;;;2.63;2.40;;;;;;;13.93;95.46;100126.44;4876339;29;20057;-65
2022/05/30 02:42:51;;;;;;;4.38;2.70;;;;;;;14.20;96.17;100121.09;4867148;29;20408;-65
2022/05/30 02:45:19;;;;;;;3.33;2.80;;;;;;;14.01;98.31;100129.56;4875076;29;20053;-65
2022/05/30 02:47:47;;;;;;;2.97;2.55;;;;;;;14.10;96.87;100128.50;4877540;29;20053;-65
2022/05/30 02:50:17;;;;;;;4.25;2.90;;;;;;;14.15;96.97;100122.03;4893785;29;20053;-65
2022/05/30 02:52:45;;;;;;;3.75;2.78;;;;;;;14.23;96.31;100121.25;4879255;29;20493;-65
2022/05/30 02:55:18;;;;;;;3.92;2.67;;;;;;;14.18;98.61;100112.34;4875816;29;20053;-66
2022/05/30 02:57:51;;;;;;;5.22;2.97;;;;;;;14.27;97.03;100117.91;4873418;29;20060;-66
2022/05/30 03:00:21;;;;;;;3.55;3.20;;;;;;;14.19;97.86;100114.78;4870257;29;20057;-66
2022/05/30 03:02:54;;;;;;;3.95;3.13;;;;;;;14.12;98.31;100111.66;4877178;29;20060;-65
2022/05/30 03:05:22;;;;;;;2.70;2.50;;;;;;;13.97;99.50;100107.34;4877667;29;20080;-66
2022/05/30 03:07:50;;;;;;;3.33;2.53;;;;;;;14.04;98.23;100110.50;4878435;29;20061;-65
2022/05/30 03:10:57;;;;;;;3.70;2.90;;;;;;;13.92;100.00;100104.75;4873712;29;20147;-65
2022/05/30 03:13:25;;;;;;;4.22;2.67;;;;;;;13.92;99.48;100102.81;4877925;29;20072;-65
2022/05/30 03:15:53;;;;;;;3.65;2.22;;;;;;;13.94;98.43;100100.53;4880066;29;20053;-68
2022/05/30 03:18:21;;;;;;;2.90;2.70;;;;;;;13.84;100.00;100107.13;4863372;29;20503;-65
2022/05/30 03:20:49;;;;;;;3.00;2.58;;;;;;;13.85;100.00;100099.69;4878763;29;20501;-66
2022/05/30 03:23:17;;;;;;;3.03;2.75;;;;;;;13.80;100.00;100117.16;4879348;29;20045;-65
2022/05/30 03:26:15;;;;;;;5.07;3.25;;;;;;;13.75;100.00;100114.53;4877755;29;20056;-65
2022/05/30 03:28:44;;;;;;;3.42;2.75;;;;;;;13.76;100.00;100107.06;4878735;29;20041;-66
2022/05/30 03:31:13;;;;;;;3.10;2.80;;;;;;;13.71;100.00;100102.50;4877064;29;20067;-66
2022/05/30 03:33:42;;;;;;;4.85;3.13;;;;;;;13.75;100.00;100102.69;4865464;29;20481;-65
2022/05/30 03:36:17;;;;;;;3.50;2.70;;;;;;;13.68;100.00;100100.38;4878527;29;20492;-65
2022/05/30 03:39:04;;;;;;;5.28;2.67;;;;;;;13.63;100.00;100111.53;4879767;29;20481;-65
2022/05/30 03:41:51;;;;;;;2.65;2.42;;;;;;;13.77;100.00;100105.94;4878927;29;20404;-65
2022/05/30 03:44:46;;;;;;;3.53;3.03;;;;;;;13.88;100.00;100101.81;4878388;29;20053;-65
2022/05/30 03:47:14;;;;;;;4.22;2.95;;;;;;;13.98;99.61;100107.06;4876917;29;20053;-65
2022/05/30 03:49:42;;;;;;;3.17;2.80;;;;;;;13.91;100.00;100111.38;4878180;29;20053;-65
2022/05/30 03:52:11;;;;;;;5.20;3.00;;;;;;;13.81;100.00;100113.28;4877457;29;20057;-66
2022/05/30 03:54:40;;;;;;;3.85;3.38;;;;;;;13.76;100.00;100109.81;4878101;29;20056;-66
2022/05/30 03:57:08;;;;;;;2.65;2.45;;;;;;;13.74;100.00;100109.31;4878144;29;20045;-66
2022/05/30 03:59:36;;;;;;;4.15;3.05;;;;;;;13.65;100.00;100115.56;4876998;29;20052;-65
2022/05/30 04:02:04;;;;;;;3.33;3.03;;;;;;;13.59;100.00;100116.81;4879056;29;20057;-65
2022/05/30 04:04:32;;;;;;;3.13;2.83;;;;;;;13.55;100.00;100126.81;4878894;29;20049;-66
2022/05/30 04:07:02;;;;;;;3.10;2.80;;;;;;;13.56;100.00;100125.69;4878003;29;20508;-66
2022/05/30 04:09:35;;;;;;;3.22;2.80;;;;;;;13.49;100.00;100112.38;4876898;29;20056;-66
2022/05/30 04:12:26;;;;;;;3.90;3.10;;;;;;;13.42;100.00;100111.97;4877605;29;20520;-66
2022/05/30 04:15:19;;;;;;;3.83;2.90;;;;;;;13.44;100.00;100115.22;4878566;29;20049;-66
2022/05/30 04:17:48;;;;;;;3.38;2.92;;;;;;;13.52;99.83;100127.44;4877928;29;20049;-66
2022/05/30 04:20:16;;;;;;;3.30;3.00;;;;;;;13.46;100.00;100123.16;4878867;29;20068;-65
2022/05/30 04:22:44;;;;;;;5.65;3.47;;;;;;;13.39;100.00;100134.59;4876745;29;20053;-66
2022/05/30 04:25:28;;;;;;;3.38;2.88;;;;;;;13.39;98.37;100129.09;4878403;29;20045;-66
2022/05/30 04:27:56;;;;;;;3.15;2.67;;;;;;;13.50;100.00;100129.69;4876368;29;20413;-66
2022/05/30 04:30:24;;;;;;;2.85;2.60;;;;;;;13.62;99.39;100138.19;4876740;29;20064;-66
2022/05/30 04:32:53;;;;;;;4.03;3.63;;;;;;;13.64;100.00;100141.44;4877667;29;20493;-66
2022/05/30 04:35:22;;;;;;;3.42;2.90;;;;;;;13.67;99.16;100138.06;4893118;29;20056;-66
2022/05/30 04:37:50;;;;;;;3.83;3.05;;;;;;;13.76;99.21;100142.81;4878116;29;20063;-65
2022/05/30 04:40:26;;;;;;;4.45;2.95;;;;;;;13.67;96.80;100140.00;4891820;29;21212;-66
2022/05/30 04:43:26;;;;;;;3.80;2.90;;;;;;;13.78;98.15;100135.09;4845729;29;20072;-70
2022/05/30 04:46:29;;;;;;;3.63;2.70;;;;;;;14.29;94.84;100137.66;4873866;29;20052;-71
2022/05/30 04:48:59;;;;;;;3.78;2.92;;;;;;;14.38;92.96;100146.78;4874863;29;20049;-71
2022/05/30 04:51:31;;;;;;;3.95;2.53;;;;;;;14.52;92.92;100141.16;4873406;29;20041;-71
2022/05/30 04:53:59;;;;;;;3.78;3.05;;;;;;;14.70;93.50;100154.97;4872862;29;20710;-71
2022/05/30 04:56:47;;;;;;;5.40;3.35;;;;;;;14.90;92.08;100159.13;4877263;29;20504;-71
2022/05/30 04:59:24;;;;;;;2.70;2.45;;;;;;;14.95;90.30;100158.97;4875773;29;20052;-71
2022/05/30 05:01:57;;;;;;;2.90;2.50;;;;;;;14.97;89.62;100153.97;4875565;29;20053;-71
2022/05/30 05:04:29;;;;;;;2.45;2.25;;;;;;;15.17;88.50;100157.25;4871538;29;20037;-71
2022/05/30 05:06:57;;;;;;;2.80;2.40;;;;;;;15.12;88.59;100157.41;4859162;29;20056;-71
2022/05/30 05:09:34;;;;;;;4.90;2.90;;;;;;;15.17;87.45;100169.06;4870282;29;20424;-71
2022/05/30 05:12:21;;;;;;;2.58;2.38;;;;;;;15.24;86.84;100171.38;4872275;29;20057;-71
2022/05/30 05:15:18;;;;;;;3.17;2.70;;;;;;;15.31;85.97;100162.63;4840488;29;20056;-71
2022/05/30 05:18:12;;;;;;;4.03;1.98;;;;;;;15.39;85.01;100170.09;4874187;29;20056;-71
2022/05/30 05:20:44;;;;;;;2.88;2.20;;;;;;;15.24;84.70;100181.59;4872139;29;20056;-69
2022/05/30 05:23:12;;;;;;;2.78;2.38;;;;;;;15.10;85.64;100190.00;4873516;29;20057;-70
2022/05/30 05:26:02;;;;;;;2.60;2.40;;;;;;;15.16;85.97;100186.75;4866488;29;20413;-70
2022/05/30 05:28:48;;;;;;;1.90;1.77;;;;;;;15.09;86.03;100182.84;4865668;29;20053;-69
2022/05/30 05:31:34;;;;;;;4.43;2.45;;;;;;;15.08;85.91;100189.50;4868203;29;20053;-69
2022/05/30 05:34:06;;;;;;;2.80;2.17;;;;;;;15.15;85.82;100189.84;4873654;29;20053;-69
2022/05/30 05:36:39;;;;;;;3.35;2.45;;;;;;;15.14;86.70;100193.72;4877550;29;20516;-69
2022/05/30 05:39:08;;;;;;;3.58;2.58;;;;;;;15.27;85.87;100187.28;4876453;29;20045;-69
2022/05/30 05:41:48;;;;;;;3.70;2.47;;;;;;;15.26;87.49;100180.13;4879391;29;20496;-68
2022/05/30 05:44:17;;;;;;;3.58;2.33;;;;;;;15.22;83.75;100186.59;4876757;29;20511;-69
2022/05/30 05:46:47;;;;;;;3.38;2.58;;;;;;;15.22;85.08;100194.88;4879053;29;20500;-69
2022/05/30 05:49:15;;;;;;;2.60;2.38;;;;;;;15.23;81.83;100191.81;4880068;29;20504;-69
2022/05/30 05:51:43;;;;;;;3.05;2.63;;;;;;;15.38;82.47;100192.47;4879453;29;20060;-69
2022/05/30 05:54:12;;;;;;;3.65;2.72;;;;;;;15.49;83.58;100199.28;4878778;29;20053;-68
2022/05/30 05:56:40;;;;;;;4.85;2.83;;;;;;;15.74;84.15;100193.31;4881540;29;20045;-68
2022/05/30 05:59:18;;;;;;;4.20;3.22;;;;;;;15.78;86.95;100206.13;4880387;29;20055;-68
2022/05/30 06:01:47;;;;;;;5.25;2.97;;;;;;;15.88;79.93;100204.19;4879131;29;20424;-68
2022/05/30 06:04:15;;;;;;;2.42;2.22;;;;;;;15.76;79.91;100200.13;4876699;29;20524;-68
2022/05/30 06:06:44;;;;;;;3.40;2.83;;;;;;;15.91;82.42;100204.34;4880877;29;20053;-68
2022/05/30 06:09:30;;;;;;;3.53;2.55;;;;;;;15.83;81.39;100207.91;4879179;29;20079;-69
2022/05/30 06:12:09;;;;;;;3.10;2.40;;;;;;;15.82;80.69;100204.34;4880055;29;20056;-69
2022/05/30 06:14:39;;;;;;;3.75;2.10;;;;;;;16.06;77.14;100205.84;4878317;29;20061;-69
2022/05/30 06:17:07;;;;;;;3.50;2.70;;;;;;;16.03;77.86;100208.44;4879493;29;20053;-69
2022/05/30 06:19:35;;;;;;;2.58;2.38;;;;;;;15.88;77.40;100206.94;4879484;29;20489;-69
2022/05/30 06:22:03;;;;;;;3.72;1.88;;;;;;;15.99;76.89;100206.31;4880234;29;20052;-69
2022/05/30 06:24:34;;;;;;;3.10;1.80;;;;;;;16.01;74.05;100203.22;4879694;29;20409;-69
2022/05/30 06:27:35;;;;;;;4.63;2.28;;;;;;;16.39;74.17;100202.50;4875592;29;20053;-69
2022/05/30 06:30:23;;;;;;;1.98;1.80;;;;;;;16.65;75.53;100209.91;4861090;29;20049;-69
2022/05/30 06:32:51;;;;;;;1.98;1.77;;;;;;;16.26;71.94;100206.28;4844482;29;20501;-69
2022/05/30 06:35:44;;;;;;;1.55;1.45;;;;;;;16.35;69.17;100211.78;4875432;29;20057;-69
2022/05/30 06:38:14;;;;;;;1.88;1.48;;;;;;;16.47;70.36;100211.13;4870198;29;20429;-68
2022/05/30 06:40:54;;;;;;;1.42;1.25;;;;;;;16.50;71.27;100208.50;4863687;29;20057;-68
2022/05/30 06:43:28;;;;;;;1.65;1.52;;;;;;;16.87;71.03;100215.53;4894716;29;20048;-69
2022/05/30 06:46:23;;;;;;;2.22;1.48;;;;;;;17.26;67.46;100221.06;4858875;29;20053;-69
2022/05/30 06:49:10;;;;;;;1.90;1.42;;;;;;;17.25;65.18;100220.22;4880442;29;20044;-69
2022/05/30 06:51:48;;;;;;;1.73;1.63;;;;;;;17.48;66.80;100221.88;4879309;29;20082;-69
2022/05/30 06:54:16;;;;;;;1.77;1.23;;;;;;;17.13;65.21;100218.19;4894779;29;20049;-68
2022/05/30 06:58:12;;;;;;;1.52;1.42;;;;;;;17.57;65.57;100226.22;4870868;29;20050;-69
2022/05/30 06:59:34;;;;;;;1.95;1.63;;;;;;;17.95;65.47;100229.97;4877191;29;20053;-69
2022/05/30 07:02:07;;;;;;;3.53;1.30;;;;;;;18.22;63.09;100233.34;4880142;29;20045;-69
2022/05/30 07:05:01;;;;;;;1.55;1.45;;;;;;;18.14;65.31;100225.97;4865354;29;20053;-69
2022/05/30 07:07:47;;;;;;;1.50;1.40;;;;;;;18.14;62.60;100234.25;4879841;29;20056;-69
2022/05/30 07:10:42;;;;;;;1.40;1.30;;;;;;;18.72;59.18;100236.25;4865239;29;20053;-69
2022/05/30 07:13:14;;;;;;;1.50;1.40;;;;;;;18.81;59.46;100236.16;4879751;29;20045;-69
2022/05/30 07:15:48;;;;;;;1.63;1.30;;;;;;;18.86;58.73;100232.34;4877256;29;20056;-69
2022/05/30 07:18:28;;;;;;;1.38;1.27;;;;;;;18.39;61.13;100243.44;4893914;29;20378;-69
2022/05/30 07:21:01;;;;;;;1.90;1.67;;;;;;;18.35;60.97;100241.72;4879921;29;20409;-69
2022/05/30 07:23:31;;;;;;;1.95;1.85;;;;;;;18.20;60.98;100245.94;4879115;29;20053;-68
2022/05/30 07:26:20;;;;;;;1.65;1.50;;;;;;;18.40;60.53;100256.16;4879787;29;20064;-69
2022/05/30 07:29:08;;;;;;;1.20;1.10;;;;;;;19.06;59.23;100252.81;4878888;29;20056;-69
2022/05/30 07:32:02;;;;;;;1.73;1.60;;;;;;;19.38;58.92;100258.59;4879076;29;20053;-69
2022/05/30 07:34:49;;;;;;;2.00;1.90;;;;;;;18.56;58.98;100258.28;4879865;29;20049;-68
2022/05/30 07:37:35;;;;;;;2.83;2.63;;;;;;;18.23;60.60;100261.88;4879652;29;20045;-68
2022/05/30 07:40:25;;;;;;;4.07;1.85;;;;;;;18.49;59.29;100258.84;4877731;29;20049;-69
2022/05/30 07:43:15;;;;;;;4.07;1.80;;;;;;;19.19;56.98;100260.00;4878937;29;20067;-69
2022/05/30 07:46:03;;;;;;;2.15;1.77;;;;;;;19.48;55.80;100260.09;4877900;29;20037;-68
2022/05/30 07:48:49;;;;;;;2.72;2.53;;;;;;;19.27;57.50;100274.09;4879448;29;20060;-69
2022/05/30 07:51:36;;;;;;;1.98;1.80;;;;;;;19.26;58.55;100270.50;4879382;29;20492;-69
2022/05/30 07:54:16;;;;;;;2.42;2.00;;;;;;;19.77;56.64;100269.31;4877136;29;20054;-69
2022/05/30 07:57:07;;;;;;;2.28;2.03;;;;;;;20.06;58.11;100277.69;4870762;29;20057;-68
2022/05/30 07:59:36;;;;;;;2.28;2.13;;;;;;;19.96;57.50;100271.50;4874259;29;20100;-69
2022/05/30 08:02:06;;;;;;;3.03;2.83;;;;;;;19.93;59.88;100271.34;4867673;29;20060;-68
2022/05/30 08:04:36;;;;;;;3.15;2.85;;;;;;;19.64;56.91;100273.28;4864778;29;20060;-69
2022/05/30 08:07:28;;;;;;;2.50;2.30;;;;;;;20.41;55.41;100269.56;4878700;29;20060;-68
2022/05/30 08:10:14;;;;;;;2.55;2.35;;;;;;;20.27;53.48;100271.94;4862487;29;20056;-68
2022/05/30 08:12:42;;;;;;;3.72;2.60;;;;;;;19.78;56.93;100265.38;4874666;29;20053;-68
2022/05/30 08:15:14;;;;;;;2.80;2.50;;;;;;;19.40;59.77;100264.59;4865884;29;20049;-68
2022/05/30 08:18:20;;;;;;;2.75;2.47;;;;;;;19.44;60.08;100270.28;4874297;29;20484;-67
2022/05/30 08:20:52;;;;;;;3.47;2.97;;;;;;;18.99;60.29;100270.03;4876816;29;20057;-68
2022/05/30 08:23:23;;;;;;;3.17;2.70;;;;;;;19.09;61.17;100273.50;4876446;29;20060;-68
2022/05/30 08:25:53;;;;;;;2.70;2.50;;;;;;;19.49;57.63;100264.50;4876949;29;20390;-68
2022/05/30 08:28:24;;;;;;;5.63;2.30;;;;;;;20.00;56.68;100266.03;4860980;29;20053;-68
2022/05/30 08:30:52;;;;;;;2.50;2.30;;;;;;;20.17;55.38;100259.38;4867076;29;20061;-68
2022/05/30 08:33:41;;;;;;;2.30;2.10;;;;;;;19.97;56.41;100272.28;4848396;29;20068;-67
2022/05/30 08:36:15;;;;;;;3.33;2.47;;;;;;;20.17;55.00;100278.00;4878582;29;20049;-67
2022/05/30 08:38:44;;;;;;;2.63;2.42;;;;;;;20.61;55.13;100272.47;4873092;29;20061;-68
2022/05/30 08:44:17;;;;;;;2.33;2.13;;;;;;;20.82;51.05;100274.19;4874058;29;20049;-68
2022/05/30 08:47:30;;;;;;;1.98;1.88;;;;;;;21.44;50.75;100289.63;4856104;29;20528;-68
2022/05/30 08:50:14;;;;;;;3.17;1.80;;;;;;;21.65;49.93;100278.19;4878025;29;20064;-68
2022/05/30 08:52:45;;;;;;;1.63;1.53;;;;;;;21.70;49.00;100280.72;4874540;29;20053;-67
2022/05/30 08:55:43;;;;;;;2.20;1.65;;;;;;;21.39;47.23;100281.56;4873226;29;20317;-68
2022/05/30 08:58:30;;;;;;;1.77;1.65;;;;;;;21.30;48.74;100273.41;4849787;29;20535;-68
2022/05/30 09:01:04;;;;;;;1.50;1.40;;;;;;;21.27;45.93;100279.69;4877065;29;20112;-68
2022/05/30 09:04:06;;;;;;;1.80;1.52;;;;;;;21.39;48.77;100279.59;4878286;29;20052;-67
2022/05/30 09:07:02;;;;;;;2.25;1.80;;;;;;;21.05;48.02;100279.16;4876329;29;20056;-67
2022/05/30 09:10:04;;;;;;;1.75;1.50;;;;;;;20.82;47.66;100276.97;4876226;29;20423;-68
2022/05/30 09:12:54;;;;;;;1.33;1.08;;;;;;;20.76;48.42;100270.06;4876345;29;20052;-68
2022/05/30 09:15:25;;;;;;;1.40;1.30;;;;;;;21.31;47.49;100280.59;4878150;29;20377;-68
2022/05/30 09:18:06;;;;;;;1.30;1.20;;;;;;;20.52;46.15;100280.16;4876019;29;20063;-68
2022/05/30 09:20:35;;;;;;;2.13;1.20;;;;;;;20.25;48.06;100280.63;4861269;29;20052;-67
2022/05/30 09:23:07;;;;;;;1.98;1.20;;;;;;;20.86;45.92;100279.91;4874656;29;20064;-68
2022/05/30 09:29:10;;;;;;;1.10;1.00;;;;;;;21.48;44.35;100274.66;4854468;29;20512;-68
2022/05/30 09:32:13;;;;;;;1.70;1.55;;;;;;;21.93;44.10;100279.19;4877397;29;20064;-68
2022/05/30 09:35:30;;;;;;;2.13;1.48;;;;;;;21.32;45.84;100279.44;4867407;29;20053;-68
2022/05/30 09:38:28;;;;;;;3.10;1.38;;;;;;;21.68;44.09;100273.84;4872801;29;20049;-68
2022/05/30 09:40:59;;;;;;;2.45;1.08;;;;;;;21.70;41.06;100277.13;4877820;29;20048;-68
2022/05/30 09:44:06;;;;;;;0.98;0.90;;;;;;;;;;4877847;29;20084;-68
2022/05/30 09:46:43;;;;;;;1.38;0.98;;;;;;;21.64;43.65;100268.22;4850995;29;20420;-68
2022/05/30 09:49:17;;;;;;;1.67;0.80;;;;;;;22.08;42.95;100271.94;4876863;29;20469;-68
2022/05/30 09:52:02;;;;;;;2.78;1.48;;;;;;;22.02;42.62;100277.00;4872600;29;20053;-68
2022/05/30 09:54:37;;;;;;;1.63;1.52;;;;;;;21.71;45.56;100273.19;4875132;29;20041;-68
2022/05/30 09:57:14;;;;;;;1.38;1.25;;;;;;;21.62;45.23;100274.13;4874816;29;20053;-68
2022/05/30 10:00:17;;;;;;;1.30;1.00;;;;;;;21.71;44.35;100265.63;4876593;29;20053;-68
2022/05/30 10:03:00;;;;;;;1.15;1.00;;;;;;;21.64;43.38;100271.00;4866343;29;20058;-69
2022/05/30 10:05:31;;;;;;;2.05;1.15;;;;;;;21.43;44.06;100272.13;4877252;29;20053;-68
2022/05/30 10:08:05;;;;;;;1.40;1.02;;;;;;;21.67;45.24;100264.72;4874805;29;20044;-68
2022/05/30 10:10:53;;;;;;;3.53;1.40;;;;;;;21.86;44.93;100268.72;4873393;29;20041;-68
2022/05/30 10:13:37;;;;;;;1.45;1.33;;;;;;;21.70;43.07;100266.78;4872748;29;20045;-69
2022/05/30 10:16:34;;;;;;;0.85;0.85;;;;;;;21.50;44.31;100271.47;4873855;29;20052;-68
2022/05/30 10:19:09;;;;;;;1.08;0.98;;;;;;;21.50;42.38;100265.13;4876207;29;20060;-68
2022/05/30 10:28:53;;;;;;;0.90;0.90;;;;;;;21.62;43.08;100265.78;4877713;29;20056;-68
2022/05/30 10:32:17;;;;;;;2.70;1.40;;;;;;;21.91;42.19;100273.19;4876500;29;20064;-68
2022/05/30 10:35:06;;;;;;;1.58;1.35;;;;;;;21.91;43.05;100256.47;4875964;29;20057;-68
2022/05/30 10:37:47;;;;;;;1.02;1.02;;;;;;;22.09;44.51;100257.66;4857742;29;20064;-71
2022/05/30 10:40:30;;;;;;;1.00;1.00;;;;;;;22.15;42.80;100261.75;4876482;29;20078;-73
2022/05/30 10:43:11;;;;;;;1.15;0.93;;;;;;;22.37;42.49;100272.50;4889948;29;20048;-72
2022/05/30 10:46:27;;;;;;;1.20;1.20;;;;;;;22.54;42.37;100271.28;4888708;29;20516;-73
2022/05/30 10:49:14;;;;;;;0.77;0.77;;;;;;;22.39;40.14;100270.19;4789047;29;20410;-72
2022/05/30 10:52:05;;;;;;;1.15;1.13;;;;;;;22.42;41.11;100269.44;4775966;29;20090;-72
2022/05/30 10:54:51;;;;;;;0.80;0.80;;;;;;;22.51;39.97;100261.66;4868095;29;20515;-72
2022/05/30 10:57:23;;;;;;;4.10;0.98;;;;;;;22.57;40.08;100269.75;4877073;29;20052;-73
2022/05/30 11:00:19;;;;;;;0.45;0.45;;;;;;;22.75;38.80;100265.28;4862062;29;20057;-72
2022/05/30 11:02:50;;;;;;;1.02;0.73;;;;;;;22.72;39.26;100274.38;4861508;29;20058;-72
2022/05/30 11:05:23;;;;;;;0.90;0.90;;;;;;;22.61;38.25;100265.84;4862264;29;20041;-72
2022/05/30 11:08:03;;;;;;;1.35;1.20;;;;;;;22.28;38.24;100281.09;4863091;29;20409;-72
2022/05/30 11:10:33;;;;;;;2.40;0.85;;;;;;;22.45;39.50;100274.28;4868093;29;20041;-73
2022/05/30 11:13:20;;;;;;;1.05;0.73;;;;;;;22.54;39.60;100276.88;4873095;29;20053;-72
2022/05/30 11:16:41;;;;;;;1.00;0.85;;;;;;;22.54;39.33;100272.09;4876715;29;20064;-72
2022/05/30 11:19:53;;;;;;;0.93;0.90;;;;;;;22.53;38.21;100270.47;4865510;29;20064;-72
2022/05/30 11:22:47;;;;;;;0.60;0.60;;;;;;;22.59;38.39;100267.38;4873310;29;20065;-72
2022/05/30 11:25:23;;;;;;;0.73;0.60;;;;;;;22.57;39.66;100266.97;4864034;29;20049;-72
2022/05/30 11:28:12;;;;;;;0.73;0.73;;;;;;;22.36;39.19;100282.06;4860511;29;20057;-72
2022/05/30 11:30:46;;;;;;;0.60;0.60;;;;;;;22.00;39.28;100282.16;4870990;29;20064;-72
2022/05/30 11:33:35;;;;;;;0.70;0.63;;;;;;;22.32;39.14;100275.59;4874547;29;20056;-72
2022/05/30 11:36:25;;;;;;;0.45;0.45;;;;;;;22.62;38.05;100281.38;4874158;29;20056;-72
2022/05/30 11:39:23;;;;;;;0.57;0.57;;;;;;;22.81;37.68;100274.16;4875288;29;20493;-72
2022/05/30 11:42:10;;;;;;;1.13;0.65;;;;;;;22.78;38.68;100272.91;4851214;29;20056;-72
2022/05/30 11:45:09;;;;;;;0.63;0.50;;;;;;;23.16;37.37;100270.34;4871482;29;20433;-72
2022/05/30 11:47:49;;;;;;;0.35;0.30;;;;;;;23.12;37.31;100271.47;4876189;29;20053;-72
2022/05/30 11:50:47;;;;;;;1.17;0.70;;;;;;;23.44;36.58;100280.38;4875010;29;20045;-72
2022/05/30 11:53:43;;;;;;;0.50;0.50;;;;;;;23.28;36.58;100277.72;4875719;29;20048;-74
2022/05/30 11:56:31;;;;;;;0.88;0.68;;;;;;;23.45;37.23;100268.03;4875521;29;20512;-74
2022/05/30 11:59:27;;;;;;;0.52;0.43;;;;;;;23.22;36.21;100282.00;4871668;29;20067;-73
2022/05/30 12:02:04;;;;;;;1.17;0.80;;;;;;;23.08;38.05;100266.63;4872633;29;20076;-71
2022/05/30 12:05:11;;;;;;;1.67;0.93;;;;;;;22.77;36.58;100260.13;4841670;29;20061;-71
2022/05/30 12:08:23;;;;;;;0.65;0.60;;;;;;;22.75;36.79;100268.09;4843304;29;20057;-73
2022/05/30 12:11:41;;;;;;;0.70;0.70;;;;;;;22.69;36.76;100269.56;4871526;29;20040;-73
2022/05/30 12:14:25;;;;;;;1.02;0.52;;;;;;;22.43;36.88;100276.63;4840027;29;20064;-72
2022/05/30 12:17:20;;;;;;;0.50;0.50;;;;;;;22.74;35.96;100260.91;4877935;29;20068;-74
2022/05/30 12:25:59;;;;;;;0.60;0.50;;;;;;;23.17;34.94;100240.47;4859510;29;20053;-72
2022/05/30 12:28:27;;;;;;;1.00;0.50;;;;;;;23.14;36.23;100244.00;4873276;29;20045;-71
2022/05/30 12:30:59;;;;;;;0.50;0.43;;;;;;;22.79;35.31;100243.81;4870307;29;20654;-72
2022/05/30 12:33:29;;;;;;;2.92;0.35;;;;;;;22.75;35.47;100254.13;4873971;29;20064;-71
2022/05/30 12:36:24;;;;;;;0.68;0.50;;;;;;;22.67;36.66;100257.97;4842614;29;20449;-72
2022/05/30 12:38:58;;;;;;;0.47;0.47;;;;;;;22.53;37.29;100267.69;4867485;29;20065;-72
2022/05/30 12:41:56;;;;;;;0.93;0.73;;;;;;;22.45;37.01;100265.09;4875810;29;20056;-71
2022/05/30 12:44:44;;;;;;;1.10;0.60;;;;;;;22.49;37.27;100274.34;4877639;29;20429;-72